Time;durP1;ratioP1;P1;durP2;ratioP2;P2;SDS_P1;SDS_P2;PMS_P1;PMS_P2;Temp;Humidity;BMP_temperature;BMP_pressure;BME280_temperature;BME280_humidity;BME280_pressure;Samples;Min_cycle;Max_cycle;Signal;HPM_P1;HPM_P2
2021/04/06 00:01:47;;;;;;;13.57;9.63;;;;;;;4.55;52.53;99010.17;1648108;85;21057;-79
2021/04/06 00:04:22;;;;;;;14.97;11.23;;;;;;;4.50;52.71;99004.09;1648143;85;21175;-77
2021/04/06 00:06:54;;;;;;;12.37;10.83;;;;;;;4.49;52.70;99005.92;1617280;86;21202;-77
2021/04/06 00:09:25;;;;;;;14.53;11.60;;;;;;;4.48;52.77;99006.10;1649471;85;21770;-78
2021/04/06 00:11:56;;;;;;;14.33;11.57;;;;;;;4.46;52.87;99001.51;1661513;83;21077;-78
2021/04/06 00:14:25;;;;;;;14.93;10.23;;;;;;;4.47;52.74;99015.03;1649161;85;21158;-76
2021/04/06 00:16:57;;;;;;;14.40;9.83;;;;;;;4.48;52.79;99016.66;1648978;85;21643;-79
2021/04/06 00:19:28;;;;;;;13.53;9.70;;;;;;;4.49;52.83;99011.20;1636763;85;21172;-78
2021/04/06 00:21:59;;;;;;;14.57;10.60;;;;;;;4.49;53.10;99011.71;1641924;85;21163;-77
2021/04/06 00:24:30;;;;;;;13.40;9.63;;;;;;;4.49;53.10;99007.75;1614392;86;21032;-78
2021/04/06 00:27:17;;;;;;;12.50;9.47;;;;;;;4.49;53.13;98997.20;1612320;86;21172;-75
2021/04/06 00:29:50;;;;;;;14.30;9.40;;;;;;;4.47;53.53;99001.84;1616858;87;21463;-77
2021/04/06 00:32:19;;;;;;;11.57;8.30;;;;;;;4.43;53.54;98988.70;1614593;87;21215;-77
2021/04/06 00:34:52;;;;;;;12.17;9.23;;;;;;;4.43;53.56;99002.70;1666708;84;21176;-76
2021/04/06 00:37:21;;;;;;;12.93;9.60;;;;;;;4.39;53.87;99000.11;1682129;84;21713;-76
2021/04/06 00:40:10;;;;;;;12.43;9.63;;;;;;;4.39;53.93;98990.03;1655630;85;21181;-77
2021/04/06 00:42:38;;;;;;;;;;;;;;;4.37;54.08;98985.44;1676029;84;21129;-77
2021/04/06 00:45:13;;;;;;;10.50;9.07;;;;;;;4.33;54.31;98992.90;1671113;84;20155;-76
2021/04/06 00:47:40;;;;;;;10.50;9.00;;;;;;;4.27;54.27;98994.44;1694563;84;21156;-76
2021/04/06 00:50:12;;;;;;;11.47;9.80;;;;;;;4.28;54.43;98988.69;1658794;85;21358;-76
2021/04/06 00:52:46;;;;;;;12.07;9.47;;;;;;;4.28;54.34;98975.50;1688060;84;21173;-77
2021/04/06 00:55:19;;;;;;;15.57;10.57;;;;;;;4.29;54.47;98979.28;1680856;82;21152;-77
2021/04/06 00:57:47;;;;;;;9.50;8.63;;;;;;;4.31;54.34;98986.98;1711253;82;21148;-77
2021/04/06 01:00:32;;;;;;;13.73;9.87;;;;;;;4.31;54.42;98972.48;1698157;82;21283;-76
2021/04/06 01:03:14;;;;;;;12.17;9.80;;;;;;;4.32;54.65;98981.23;1649954;85;21639;-76
2021/04/06 01:06:05;;;;;;;15.37;10.73;;;;;;;4.29;54.69;98974.48;1649617;85;21176;-76
2021/04/06 01:08:37;;;;;;;10.03;8.83;;;;;;;4.28;54.63;98974.18;1655845;86;21176;-76
2021/04/06 01:11:06;;;;;;;11.33;9.40;;;;;;;4.25;54.76;98983.25;1644912;86;21635;-76
2021/04/06 01:13:35;;;;;;;11.30;10.17;;;;;;;4.24;54.83;98984.27;1663764;86;22105;-76
2021/04/06 01:16:10;;;;;;;12.10;10.13;;;;;;;4.24;54.83;98989.55;1661052;85;21318;-75
2021/04/06 01:18:38;;;;;;;15.47;10.13;;;;;;;4.25;55.05;98991.67;1663876;85;21691;-76
2021/04/06 01:21:09;;;;;;;14.67;9.73;;;;;;;4.23;55.12;98988.41;1662094;86;21164;-77
2021/04/06 01:23:38;;;;;;;11.40;9.97;;;;;;;4.21;55.23;98987.26;1645645;86;21084;-76
2021/04/06 01:26:12;;;;;;;13.73;11.20;;;;;;;4.23;55.05;98992.36;1635801;86;21164;-76
2021/04/06 01:28:42;;;;;;;15.07;10.73;;;;;;;4.21;55.40;98990.41;1638222;86;21294;-78
2021/04/06 01:31:10;;;;;;;14.60;11.23;;;;;;;4.20;55.26;98984.31;1628767;87;21410;-76
2021/04/06 01:33:41;;;;;;;12.40;10.40;;;;;;;4.15;55.58;98980.58;1577323;88;21587;-77
2021/04/06 01:36:09;;;;;;;10.67;9.47;;;;;;;4.13;55.61;98977.31;1627650;86;21180;-77
2021/04/06 01:38:40;;;;;;;11.47;9.33;;;;;;;4.11;55.88;98980.12;1653868;86;21189;-76
2021/04/06 01:41:07;;;;;;;13.07;11.23;;;;;;;4.09;55.73;98973.70;1650907;86;21851;-78
2021/04/06 01:43:40;;;;;;;13.20;11.00;;;;;;;4.09;55.76;98978.97;1650825;86;21687;-77
2021/04/06 01:46:16;;;;;;;13.10;9.97;;;;;;;4.07;56.02;98978.84;1631660;86;21065;-76
2021/04/06 01:48:46;;;;;;;14.40;11.63;;;;;;;4.02;56.33;98981.19;1627393;88;21160;-76
2021/04/06 01:51:20;;;;;;;11.60;10.40;;;;;;;4.00;56.19;98978.73;1625922;88;21275;-77
2021/04/06 01:53:49;;;;;;;13.73;11.37;;;;;;;3.98;56.46;98978.09;1617233;88;21166;-78
2021/04/06 01:56:27;;;;;;;13.30;11.20;;;;;;;4.01;56.29;98981.70;1626990;87;21046;-77
2021/04/06 01:59:00;;;;;;;13.33;11.13;;;;;;;3.99;56.53;98984.98;1618214;88;21176;-77
2021/04/06 02:01:25;;;;;;;13.70;10.90;;;;;;;4.00;56.44;98982.68;1624307;88;21862;-79
2021/04/06 02:04:03;;;;;;;13.77;10.67;;;;;;;3.99;56.56;98983.66;1621781;88;21185;-79
2021/04/06 02:06:32;;;;;;;12.37;10.67;;;;;;;4.00;56.53;98985.83;1620825;88;21200;-79
2021/04/06 02:09:00;;;;;;;16.90;11.77;;;;;;;3.99;56.54;98983.66;1620446;88;21844;-80
2021/04/06 02:11:31;;;;;;;11.37;10.00;;;;;;;4.00;56.47;98973.96;1625637;86;21551;-78
2021/04/06 02:14:14;;;;;;;15.00;10.00;;;;;;;4.02;56.42;98974.09;1634790;86;21148;-78
2021/04/06 02:16:53;;;;;;;12.43;10.53;;;;;;;4.03;56.42;98972.27;1618626;88;21206;-77
2021/04/06 02:19:35;;;;;;;14.00;11.87;;;;;;;4.00;56.67;98978.73;1616025;88;21322;-78
2021/04/06 02:22:09;;;;;;;15.23;11.90;;;;;;;3.94;56.86;98972.02;1621897;88;21631;-78
2021/04/06 02:24:52;;;;;;;12.73;10.63;;;;;;;3.91;56.98;98974.52;1615053;88;21193;-78
2021/04/06 02:27:22;;;;;;;15.20;11.73;;;;;;;3.89;57.15;98971.25;1621794;88;21177;-77
2021/04/06 02:29:58;;;;;;;12.87;11.20;;;;;;;3.91;56.86;98970.57;1621918;88;21299;-76
2021/04/06 02:32:28;;;;;;;14.40;11.37;;;;;;;3.92;56.90;98966.95;1621966;88;21707;-77
2021/04/06 02:34:59;;;;;;;14.47;10.40;;;;;;;3.93;56.97;98962.48;1624490;86;21105;-77
2021/04/06 02:37:31;;;;;;;13.93;11.17;;;;;;;3.90;57.15;98954.45;1624012;88;21283;-78
2021/04/06 02:40:03;;;;;;;11.70;10.30;;;;;;;3.88;57.13;98961.69;1624992;84;21188;-77
2021/04/06 02:42:37;;;;;;;15.80;11.77;;;;;;;3.89;57.19;98963.34;1619643;88;21229;-77
2021/04/06 02:45:23;;;;;;;14.67;10.67;;;;;;;3.89;57.17;98960.70;1616232;88;21287;-79
2021/04/06 02:47:54;;;;;;;13.00;10.30;;;;;;;3.91;57.07;98961.34;1620474;88;21197;-78
2021/04/06 02:50:25;;;;;;;14.20;11.37;;;;;;;3.90;57.28;98972.39;1622638;88;21222;-79
2021/04/06 02:52:53;;;;;;;20.50;11.50;;;;;;;3.90;57.29;98967.63;1618024;88;21522;-78
2021/04/06 02:55:22;;;;;;;19.43;11.60;;;;;;;3.88;57.22;98972.23;1605393;88;21233;-78
2021/04/06 02:57:55;;;;;;;13.83;10.87;;;;;;;3.87;57.22;98978.02;1595331;88;21330;-78
2021/04/06 03:00:32;;;;;;;15.17;11.47;;;;;;;3.85;57.34;98965.52;1602011;88;21646;-79
2021/04/06 03:03:03;;;;;;;15.72;12.13;;;;;;;3.83;57.39;98962.75;1624037;87;21524;-75
2021/04/06 03:05:36;;;;;;;20.07;12.23;;;;;;;3.85;57.31;98960.24;1626334;87;21182;-78
2021/04/06 03:08:06;;;;;;;14.30;11.33;;;;;;;3.88;57.29;98966.96;1624579;87;21182;-77
2021/04/06 03:10:35;;;;;;;15.00;11.23;;;;;;;3.86;57.45;98971.12;1622622;87;21189;-77
2021/04/06 03:13:08;;;;;;;14.37;12.40;;;;;;;3.82;57.59;98963.22;1623862;85;21108;-78
2021/04/06 03:15:42;;;;;;;13.03;11.63;;;;;;;3.80;57.65;98962.58;1617494;88;21200;-78
2021/04/06 03:18:12;;;;;;;12.07;10.33;;;;;;;3.81;57.65;98964.23;1603547;88;21330;-77
2021/04/06 03:20:41;;;;;;;16.20;11.33;;;;;;;3.83;57.55;98962.23;1621509;88;21574;-76
2021/04/06 03:23:09;;;;;;;20.20;13.20;;;;;;;3.81;57.66;98970.02;1629121;87;21096;-77
2021/04/06 03:25:37;;;;;;;14.83;12.17;;;;;;;3.83;57.52;98968.83;1634866;87;21192;-76
2021/04/06 03:28:09;;;;;;;12.57;10.80;;;;;;;3.85;57.51;98979.20;1605061;89;21211;-77
2021/04/06 03:30:38;;;;;;;12.53;10.27;;;;;;;3.84;57.48;98986.77;1590892;90;22083;-77
2021/04/06 03:33:12;;;;;;;16.90;10.83;;;;;;;3.84;57.53;98990.25;1590952;85;21357;-78
2021/04/06 03:35:41;;;;;;;18.10;11.20;;;;;;;3.80;57.62;98991.58;1662177;85;21306;-76
2021/04/06 03:38:11;;;;;;;12.00;10.67;;;;;;;3.80;57.64;98994.22;1636045;86;21325;-77
2021/04/06 03:40:40;;;;;;;13.03;10.67;;;;;;;3.80;57.58;98988.94;1638129;86;21284;-78
2021/04/06 03:43:18;;;;;;;14.20;10.90;;;;;;;3.81;57.75;98981.38;1641170;86;22093;-86
2021/04/06 03:46:06;;;;;;;14.33;11.23;;;;;;;3.80;57.71;98983.67;1651227;85;21131;-79
2021/04/06 03:48:37;;;;;;;16.97;12.23;;;;;;;3.76;57.86;98985.03;1627212;85;21665;-78
2021/04/06 03:51:28;;;;;;;19.37;11.63;;;;;;;3.77;57.74;98989.80;1644494;85;21176;-76
2021/04/06 03:53:56;;;;;;;15.50;12.17;;;;;;;3.74;58.03;98991.48;1636108;87;21190;-78
2021/04/06 03:56:32;;;;;;;12.13;10.17;;;;;;;3.75;57.93;98994.42;1651658;86;21116;-79
2021/04/06 03:59:00;;;;;;;14.93;12.47;;;;;;;3.79;57.75;98995.23;1651186;85;21176;-76
2021/04/06 04:01:28;;;;;;;15.47;12.57;;;;;;;3.82;57.66;98992.22;1640045;85;21070;-78
2021/04/06 04:03:57;;;;;;;16.17;12.07;;;;;;;3.87;57.60;98989.88;1633064;86;21217;-80
2021/04/06 04:06:26;;;;;;;16.17;10.67;;;;;;;3.90;57.50;98990.04;1610059;89;21721;-80
2021/04/06 04:08:55;;;;;;;12.73;11.47;;;;;;;3.95;57.32;98982.39;1631847;87;21192;-80
2021/04/06 04:11:23;;;;;;;11.50;10.30;;;;;;;3.96;57.22;98989.31;1632477;85;21191;-80
2021/04/06 04:13:50;;;;;;;14.50;11.20;;;;;;;3.96;57.36;98999.05;1624712;86;21188;-79
2021/04/06 04:16:18;;;;;;;15.60;11.20;;;;;;;3.95;57.22;98985.03;1634918;86;21162;-82
2021/04/06 04:18:45;;;;;;;11.83;10.20;;;;;;;3.97;57.18;98988.30;1643574;85;21310;-81
2021/04/06 04:21:12;;;;;;;14.03;11.27;;;;;;;4.03;57.04;98988.09;1636788;86;21208;-82
2021/04/06 04:23:39;;;;;;;15.10;11.47;;;;;;;4.02;56.95;98980.69;1636615;86;21100;-80
2021/04/06 04:26:09;;;;;;;13.27;10.50;;;;;;;4.02;56.80;98976.73;1652106;85;21179;-80
2021/04/06 04:28:36;;;;;;;13.07;11.67;;;;;;;4.01;56.85;98976.91;1640505;86;21660;-79
2021/04/06 04:31:10;;;;;;;12.67;11.30;;;;;;;4.03;56.81;98977.54;1628325;86;21211;-80
2021/04/06 04:33:36;;;;;;;16.23;12.70;;;;;;;4.05;56.77;98968.95;1651639;86;21559;-80
2021/04/06 04:36:06;;;;;;;15.57;11.27;;;;;;;4.05;56.77;98975.06;1625783;86;21203;-81
2021/04/06 04:38:34;;;;;;;12.23;10.77;;;;;;;4.08;56.70;98970.73;1621350;86;21723;-81
2021/04/06 04:41:01;;;;;;;14.17;12.13;;;;;;;4.10;56.60;98975.32;1630056;86;21214;-81
2021/04/06 04:43:28;;;;;;;13.27;11.77;;;;;;;4.10;56.67;98984.55;1618633;87;21211;-80
2021/04/06 04:45:55;;;;;;;13.30;11.27;;;;;;;4.15;56.48;99002.48;1614925;85;21099;-82
2021/04/06 04:48:23;;;;;;;16.03;11.07;;;;;;;4.21;56.32;99001.77;1630785;86;21193;-81
2021/04/06 04:50:50;;;;;;;15.23;10.63;;;;;;;4.28;56.41;98999.23;1606292;88;21197;-79
2021/04/06 04:53:18;;;;;;;13.97;12.40;;;;;;;4.31;56.31;99005.45;1645112;86;21172;-80
2021/04/06 04:55:46;;;;;;;14.43;11.87;;;;;;;4.30;56.34;99002.52;1638507;85;21757;-80
2021/04/06 04:58:13;;;;;;;17.23;12.27;;;;;;;4.33;56.23;98996.05;1628633;87;21722;-86
2021/04/06 05:00:51;;;;;;;13.00;11.03;;;;;;;4.34;56.28;99008.25;1628817;86;21085;-80
2021/04/06 05:03:18;;;;;;;16.47;12.47;;;;;;;4.31;56.31;99001.50;1626741;87;21203;-79
2021/04/06 05:05:45;;;;;;;16.23;12.63;;;;;;;4.28;56.42;99004.52;1628815;86;21283;-77
2021/04/06 05:08:12;;;;;;;;;;;;;;;4.31;56.46;98997.54;1637266;87;21221;-79
2021/04/06 05:10:39;;;;;;;13.57;11.10;;;;;;;4.37;56.43;99003.44;1622943;87;20191;-77
2021/04/06 05:13:06;;;;;;;13.60;11.80;;;;;;;4.36;56.49;99009.70;1655222;86;21524;-78
2021/04/06 05:15:35;;;;;;;19.73;13.20;;;;;;;4.40;56.39;99009.65;1669457;84;21643;-77
2021/04/06 05:18:02;;;;;;;;;;;;;;;4.46;56.34;99014.70;1673091;85;21219;-77
2021/04/06 05:20:29;;;;;;;18.48;13.03;;;;;;;4.52;56.29;99006.56;1669639;84;20276;-78
2021/04/06 05:22:56;;;;;;;15.73;12.80;;;;;;;4.57;56.31;99012.13;1662044;84;21613;-77
2021/04/06 05:25:23;;;;;;;20.57;12.23;;;;;;;4.67;55.97;99004.25;1659522;84;21361;-77
2021/04/06 05:27:50;;;;;;;15.57;12.50;;;;;;;4.79;55.64;99001.97;1669462;84;21187;-77
2021/04/06 05:30:17;;;;;;;;;;;;;;;4.93;55.35;99001.62;1669228;84;21179;-77
2021/04/06 05:32:44;;;;;;;13.60;11.45;;;;;;;5.08;54.64;99001.59;1669371;86;20217;-76
2021/04/06 05:35:12;;;;;;;18.43;12.43;;;;;;;5.23;54.66;99000.24;1627355;84;21111;-76
2021/04/06 05:37:42;;;;;;;12.83;11.07;;;;;;;5.55;53.37;98994.98;1654134;84;21188;-82
2021/04/06 05:40:12;;;;;;;16.80;12.67;;;;;;;5.77;52.98;98997.63;1668436;84;21606;-76
2021/04/06 05:42:39;;;;;;;18.77;12.23;;;;;;;6.13;52.22;99003.34;1667901;85;21687;-76
2021/04/06 05:45:09;;;;;;;14.27;12.67;;;;;;;6.55;50.65;98999.74;1654560;84;21543;-76
2021/04/06 05:47:47;;;;;;;15.30;12.30;;;;;;;6.89;50.01;98998.08;1638447;86;21232;-77
2021/04/06 05:50:15;;;;;;;16.30;13.17;;;;;;;7.30;48.72;99004.36;1638762;86;22386;-77
2021/04/06 05:52:45;;;;;;;13.33;11.70;;;;;;;7.62;47.99;99001.98;1636097;86;21616;-77
2021/04/06 05:55:12;;;;;;;16.73;13.30;;;;;;;7.89;47.14;98996.18;1633226;86;21644;-76
2021/04/06 05:57:40;;;;;;;14.87;12.47;;;;;;;8.10;46.61;98993.83;1612566;88;21245;-78
2021/04/06 06:00:09;;;;;;;17.13;13.60;;;;;;;8.34;45.75;98993.70;1627301;87;21192;-76
2021/04/06 06:02:39;;;;;;;19.27;12.73;;;;;;;8.57;45.22;98996.77;1613554;87;21760;-78
2021/04/06 06:05:08;;;;;;;22.17;14.23;;;;;;;8.68;45.08;98982.53;1614932;87;21183;-78
2021/04/06 06:07:37;;;;;;;18.93;14.00;;;;;;;8.84;44.76;98987.91;1615793;87;21196;-77
2021/04/06 06:10:32;;;;;;;16.67;12.67;;;;;;;9.07;43.91;98992.72;1638469;87;21192;-82
2021/04/06 06:13:21;;;;;;;19.50;14.03;;;;;;;9.22;43.38;98991.11;1653696;85;21127;-76
2021/04/06 06:16:20;;;;;;;16.43;13.93;;;;;;;9.31;43.24;98990.65;1660265;85;21983;-77
2021/04/06 06:19:12;;;;;;;20.00;12.85;;;;;;;9.23;43.61;98994.06;1655957;85;21200;-78
2021/04/06 06:21:49;;;;;;;16.57;14.23;;;;;;;9.12;43.81;99000.88;1663145;85;21160;-77
2021/04/06 06:24:29;;;;;;;16.48;14.65;;;;;;;9.12;43.72;98994.23;1663828;85;21197;-77
2021/04/06 06:27:02;;;;;;;22.67;13.60;;;;;;;9.06;44.04;98994.56;1658912;85;21162;-78
2021/04/06 06:29:34;;;;;;;17.87;14.53;;;;;;;9.07;44.00;98993.52;1657041;85;21284;-77
2021/04/06 06:32:01;;;;;;;19.43;14.70;;;;;;;9.10;44.00;99006.92;1662060;85;21173;-77
2021/04/06 06:34:38;;;;;;;17.40;12.57;;;;;;;8.98;43.85;98990.80;1659048;86;21498;-77
2021/04/06 06:37:25;;;;;;;21.20;14.07;;;;;;;8.91;44.16;99000.63;1652550;86;21176;-78
2021/04/06 06:40:00;;;;;;;17.83;13.00;;;;;;;8.82;44.54;99004.58;1652629;86;21351;-78
2021/04/06 06:42:36;;;;;;;17.02;14.13;;;;;;;8.79;44.44;99011.63;1658712;86;21172;-78
2021/04/06 06:45:23;;;;;;;21.80;14.30;;;;;;;8.74;44.73;99016.25;1638018;86;21045;-77
2021/04/06 06:47:54;;;;;;;14.93;13.33;;;;;;;8.76;44.80;99011.54;1653716;86;21207;-78
2021/04/06 06:50:21;;;;;;;19.47;13.73;;;;;;;8.64;44.80;99011.87;1655364;86;21349;-77
2021/04/06 06:52:53;;;;;;;16.23;13.23;;;;;;;8.52;45.20;99019.66;1656641;86;21199;-76
2021/04/06 06:55:25;;;;;;;17.80;12.77;;;;;;;8.50;45.05;99015.88;1616612;87;21231;-76
2021/04/06 06:58:04;;;;;;;15.97;13.40;;;;;;;8.57;45.18;99018.02;1631126;86;21813;-76
2021/04/06 07:00:31;;;;;;;22.27;13.33;;;;;;;8.60;45.08;99015.97;1632639;86;21223;-77
2021/04/06 07:02:58;;;;;;;14.17;11.83;;;;;;;8.73;44.90;99026.56;1634676;86;21632;-74
2021/04/06 07:05:30;;;;;;;17.80;12.43;;;;;;;8.86;44.58;99033.69;1597113;87;21716;-76
2021/04/06 07:08:03;;;;;;;15.23;12.40;;;;;;;8.93;44.07;99025.99;1610618;87;21178;-76
2021/04/06 07:10:37;;;;;;;14.23;12.73;;;;;;;8.91;44.14;99018.74;1624623;86;21629;-74
2021/04/06 07:13:18;;;;;;;15.43;12.10;;;;;;;8.89;44.54;99015.48;1631356;85;21631;-74
2021/04/06 07:15:49;;;;;;;17.50;12.80;;;;;;;8.86;44.28;99014.56;1641426;86;21186;-74
2021/04/06 07:18:20;;;;;;;14.50;12.33;;;;;;;8.85;44.62;99022.73;1648550;85;21198;-74
2021/04/06 07:21:05;;;;;;;18.93;13.70;;;;;;;8.96;44.37;99018.09;1642490;86;21189;-74
2021/04/06 07:23:57;;;;;;;18.50;11.77;;;;;;;9.13;44.27;99013.94;1637980;86;21019;-74
2021/04/06 07:26:25;;;;;;;19.23;12.87;;;;;;;9.36;43.58;99013.93;1642438;86;21612;-75
2021/04/06 07:28:53;;;;;;;16.30;12.77;;;;;;;9.54;43.31;99014.03;1616911;87;21315;-75
2021/04/06 07:31:20;;;;;;;14.90;12.07;;;;;;;9.59;43.22;99013.91;1614662;87;21174;-74
2021/04/06 07:33:48;;;;;;;17.07;12.97;;;;;;;9.71;42.96;99015.67;1616495;86;21064;-74
2021/04/06 07:36:20;;;;;;;22.53;12.80;;;;;;;9.75;42.67;99018.20;1615360;87;22143;-73
2021/04/06 07:39:15;;;;;;;21.20;12.73;;;;;;;9.80;42.73;99015.43;1798865;78;23691;-75
2021/04/06 07:41:45;;;;;;;28.53;14.57;;;;;;;9.86;42.28;99015.36;1771446;80;21468;-76
2021/04/06 07:44:15;;;;;;;22.37;13.20;;;;;;;9.97;42.18;99007.73;1779609;80;21242;-75
2021/04/06 07:46:47;;;;;;;20.87;13.03;;;;;;;10.08;42.23;99008.36;1749798;80;21854;-75
2021/04/06 07:49:27;;;;;;;18.20;12.07;;;;;;;10.22;41.61;98997.88;1715931;81;21385;-75
2021/04/06 07:52:00;;;;;;;18.37;13.47;;;;;;;10.32;41.57;99004.05;1736858;80;21671;-74
2021/04/06 07:54:40;;;;;;;16.03;11.00;;;;;;;10.38;41.25;99005.86;1724566;80;21214;-74
2021/04/06 07:57:08;;;;;;;24.07;12.30;;;;;;;10.49;40.92;99012.30;1684474;80;21660;-74
2021/04/06 07:59:43;;;;;;;14.83;10.93;;;;;;;10.41;40.85;98985.42;1684423;83;21184;-75
2021/04/06 08:02:16;;;;;;;15.77;12.87;;;;;;;10.73;40.75;99012.48;1687154;84;21113;-74
2021/04/06 08:04:49;;;;;;;17.73;11.17;;;;;;;10.78;40.02;99009.45;1690761;84;21693;-74
2021/04/06 08:07:32;;;;;;;16.33;12.10;;;;;;;10.88;39.97;99019.58;1696894;83;21196;-74
2021/04/06 08:10:13;;;;;;;22.20;12.33;;;;;;;10.96;39.80;99017.94;1700035;83;21272;-75
2021/04/06 08:12:41;;;;;;;20.97;12.50;;;;;;;11.05;39.54;99021.12;1696200;82;21507;-75
2021/04/06 08:15:15;;;;;;;27.03;12.07;;;;;;;11.13;39.03;99022.67;1686173;82;21141;-75
2021/04/06 08:17:54;;;;;;;16.20;11.67;;;;;;;11.18;39.36;99022.83;1691013;83;21484;-76
2021/04/06 08:20:31;;;;;;;16.48;12.05;;;;;;;11.32;38.71;99030.97;1689638;82;21490;-75
2021/04/06 08:23:09;;;;;;;14.23;9.93;;;;;;;11.43;38.89;99027.53;1698344;82;21100;-75
2021/04/06 08:25:38;;;;;;;16.07;11.47;;;;;;;11.58;37.81;99024.96;1691276;82;21681;-76
2021/04/06 08:28:29;;;;;;;11.43;10.07;;;;;;;11.71;37.29;99019.43;1702254;82;21192;-76
2021/04/06 08:31:29;;;;;;;12.17;9.83;;;;;;;11.79;37.27;99014.28;1689412;82;21243;-76
2021/04/06 08:34:19;;;;;;;12.67;9.67;;;;;;;11.87;37.11;99011.30;1683445;82;21103;-76
2021/04/06 08:36:51;;;;;;;12.80;10.23;;;;;;;11.84;37.01;99010.41;1670776;84;21207;-76
2021/04/06 08:39:24;;;;;;;16.93;10.23;;;;;;;11.83;37.05;99009.61;1662021;84;21563;-76
2021/04/06 08:41:51;;;;;;;13.07;10.20;;;;;;;11.90;37.00;99016.20;1665744;84;21202;-76
2021/04/06 08:44:19;;;;;;;27.50;9.97;;;;;;;11.85;36.41;99001.38;1671514;84;21172;-76
2021/04/06 08:46:48;;;;;;;11.33;8.93;;;;;;;11.96;36.37;99013.13;1693608;84;21212;-75
2021/04/06 08:49:25;;;;;;;11.40;9.57;;;;;;;12.03;36.09;99006.64;1682045;84;22013;-75
2021/04/06 08:51:59;;;;;;;12.63;9.60;;;;;;;12.18;35.79;99014.20;1685094;84;21335;-75
2021/04/06 08:54:32;;;;;;;12.13;9.07;;;;;;;12.35;35.58;99002.84;1674631;84;21156;-79
2021/04/06 08:57:06;;;;;;;12.47;9.60;;;;;;;12.46;34.78;99000.16;1702231;83;21539;-75
2021/04/06 08:59:42;;;;;;;10.80;9.00;;;;;;;12.45;34.10;98999.05;1706201;82;21199;-76
2021/04/06 09:02:16;;;;;;;13.33;9.47;;;;;;;12.42;34.83;98998.20;1712232;83;21250;-75
2021/04/06 09:04:50;;;;;;;12.50;8.53;;;;;;;12.43;34.77;98997.97;1717018;83;21645;-75
2021/04/06 09:07:30;;;;;;;11.65;9.23;;;;;;;12.44;34.60;98995.56;1716635;83;21179;-74
2021/04/06 09:10:11;;;;;;;11.48;8.78;;;;;;;12.47;34.15;98994.31;1710144;83;21346;-78
2021/04/06 09:12:42;;;;;;;9.23;7.87;;;;;;;12.49;34.59;98997.56;1670712;83;21223;-75
2021/04/06 09:15:13;;;;;;;11.65;8.43;;;;;;;12.62;34.06;98989.29;1682508;84;21235;-77
2021/04/06 09:17:41;;;;;;;10.10;7.70;;;;;;;12.77;33.62;98991.98;1671086;85;21316;-73
2021/04/06 09:20:12;;;;;;;9.28;6.80;;;;;;;12.76;32.56;98991.17;1667381;84;21222;-76
2021/04/06 09:22:42;;;;;;;7.65;6.75;;;;;;;12.72;32.58;98988.69;1673981;83;21098;-77
2021/04/06 09:25:21;;;;;;;13.55;7.37;;;;;;;12.74;32.92;98987.92;1691023;82;21164;-75
2021/04/06 09:27:57;;;;;;;9.10;7.28;;;;;;;12.87;32.19;98989.53;1707159;82;21214;-75
2021/04/06 09:30:43;;;;;;;8.13;6.92;;;;;;;12.90;32.48;98982.36;1700338;83;21190;-75
2021/04/06 09:33:11;;;;;;;6.53;5.90;;;;;;;12.94;32.29;98975.51;1706283;82;21191;-76
2021/04/06 09:35:39;;;;;;;8.05;5.87;;;;;;;12.92;31.91;98982.96;1674027;83;21814;-75
2021/04/06 09:38:08;;;;;;;6.97;6.30;;;;;;;12.96;31.63;98982.77;1673601;82;21218;-75
2021/04/06 09:40:39;;;;;;;6.95;5.97;;;;;;;13.02;31.83;98981.81;1709517;81;21216;-76
2021/04/06 09:43:08;;;;;;;8.35;5.87;;;;;;;12.99;31.27;98977.46;1710424;82;21193;-75
2021/04/06 09:45:36;;;;;;;7.83;6.12;;;;;;;13.04;31.82;98973.02;1691328;82;21215;-76
2021/04/06 09:48:06;;;;;;;7.90;4.78;;;;;;;13.17;31.18;98977.28;1689180;82;21202;-75
2021/04/06 09:50:34;;;;;;;6.10;5.60;;;;;;;13.28;30.83;98973.45;1701922;82;21334;-76
2021/04/06 09:53:02;;;;;;;6.97;4.87;;;;;;;13.40;31.16;98988.44;1681688;83;21200;-77
2021/04/06 09:55:30;;;;;;;7.10;4.70;;;;;;;13.50;30.76;98982.99;1653570;84;21108;-75
2021/04/06 09:58:02;;;;;;;5.92;4.30;;;;;;;13.58;30.39;98975.89;1650718;85;21352;-76
2021/04/06 10:00:33;;;;;;;5.00;4.42;;;;;;;13.57;30.07;98976.97;1682299;83;21733;-75
2021/04/06 10:03:10;;;;;;;6.05;4.95;;;;;;;13.51;30.49;98968.56;1643554;85;21322;-76
2021/04/06 10:05:43;;;;;;;4.90;4.30;;;;;;;13.41;30.02;98973.19;1645616;84;21176;-75
2021/04/06 10:08:12;;;;;;;5.72;5.17;;;;;;;13.32;30.45;98967.97;1655728;85;21247;-74
2021/04/06 10:10:49;;;;;;;7.45;5.87;;;;;;;13.37;30.60;98974.22;1636789;86;21165;-75
2021/04/06 10:13:17;;;;;;;6.70;4.95;;;;;;;13.39;30.76;98967.27;1676006;83;21252;-76
2021/04/06 10:15:44;;;;;;;6.30;4.60;;;;;;;13.47;30.60;98962.05;1691993;83;21219;-75
2021/04/06 10:18:16;;;;;;;5.85;4.72;;;;;;;13.56;30.10;98962.78;1687004;83;21642;-74
2021/04/06 10:20:50;;;;;;;4.83;3.92;;;;;;;13.65;29.94;98957.81;1695281;83;21199;-75
2021/04/06 10:23:33;;;;;;;4.83;4.28;;;;;;;13.72;30.10;98950.45;1685748;83;21253;-76
2021/04/06 10:27:15;;;;;;;5.03;4.30;;;;;;;13.85;29.80;98943.96;1764792;79;22742;-76
2021/04/06 10:29:43;;;;;;;5.42;4.92;;;;;;;13.86;29.26;98948.78;1698613;82;21180;-76
2021/04/06 10:32:24;;;;;;;4.97;4.40;;;;;;;13.74;29.30;98951.02;1736634;80;21193;-75
2021/04/06 10:35:06;;;;;;;7.00;5.12;;;;;;;13.65;29.56;98928.37;1674065;82;21094;-76
2021/04/06 10:37:53;;;;;;;8.63;4.92;;;;;;;13.66;29.85;98946.60;1659796;84;22382;-75
2021/04/06 10:40:41;;;;;;;4.78;4.37;;;;;;;13.72;29.95;98938.93;1658302;84;21169;-76
2021/04/06 10:43:15;;;;;;;4.45;3.80;;;;;;;13.72;29.25;98934.37;1661407;85;21178;-75
2021/04/06 10:45:50;;;;;;;5.58;4.78;;;;;;;13.72;29.32;98945.09;1653986;84;21066;-76
2021/04/06 10:48:22;;;;;;;4.42;4.12;;;;;;;13.72;29.53;98937.05;1643493;84;21624;-75
2021/04/06 10:50:56;;;;;;;6.62;3.87;;;;;;;13.76;29.08;98932.83;1658973;84;21622;-76
2021/04/06 10:53:28;;;;;;;4.85;4.40;;;;;;;13.79;29.34;98923.52;1661642;84;21179;-77
2021/04/06 10:56:04;;;;;;;5.83;5.28;;;;;;;13.73;29.31;98921.29;1665707;84;21222;-76
2021/04/06 10:58:37;;;;;;;5.22;4.78;;;;;;;13.74;29.54;98934.14;1660434;84;21147;-75
2021/04/06 11:01:10;;;;;;;5.03;4.40;;;;;;;13.74;29.41;98931.47;1657784;84;21076;-77
2021/04/06 11:03:45;;;;;;;9.43;4.40;;;;;;;13.77;29.54;98926.97;1647614;85;21609;-77
2021/04/06 11:06:29;;;;;;;7.33;4.25;;;;;;;13.73;29.40;98929.33;1631219;85;21333;-77
2021/04/06 11:08:58;;;;;;;8.35;5.70;;;;;;;13.65;29.37;98929.70;1644403;85;21135;-76
2021/04/06 11:11:30;;;;;;;7.62;4.70;;;;;;;13.63;29.70;98927.80;1647247;85;21815;-76
2021/04/06 11:14:05;;;;;;;8.05;4.60;;;;;;;13.65;29.57;98920.87;1626230;87;21176;-76
2021/04/06 11:16:34;;;;;;;6.30;4.65;;;;;;;13.68;29.80;98917.18;1671519;84;21285;-79
2021/04/06 11:19:18;;;;;;;5.85;5.28;;;;;;;13.71;29.86;98916.70;1678120;84;21145;-75
2021/04/06 11:21:52;;;;;;;9.35;5.28;;;;;;;13.63;29.65;98927.27;1612347;86;21212;-76
2021/04/06 11:24:26;;;;;;;6.05;4.97;;;;;;;13.56;29.81;98920.45;1650548;84;21021;-76
2021/04/06 11:26:54;;;;;;;8.10;5.20;;;;;;;13.52;29.89;98919.31;1664150;84;21225;-80
2021/04/06 11:29:26;;;;;;;4.40;3.83;;;;;;;13.54;30.12;98918.04;1639834;85;21172;-76
2021/04/06 11:31:59;;;;;;;4.70;4.30;;;;;;;13.61;29.79;98923.22;1655053;85;21286;-76
2021/04/06 11:34:28;;;;;;;6.22;5.05;;;;;;;13.62;29.77;98916.29;1651410;85;21487;-76
2021/04/06 11:36:56;;;;;;;5.50;4.90;;;;;;;13.67;29.88;98908.85;1649332;85;21168;-75
2021/04/06 11:39:32;;;;;;;5.70;4.75;;;;;;;13.72;29.93;98907.60;1653378;84;21591;-76
2021/04/06 11:42:00;;;;;;;5.90;5.30;;;;;;;13.76;29.81;98904.72;1643218;84;21144;-76
2021/04/06 11:44:27;;;;;;;4.33;3.77;;;;;;;13.79;29.67;98898.08;1647208;85;21781;-76
2021/04/06 11:46:54;;;;;;;6.08;5.47;;;;;;;13.85;29.34;98900.31;1714353;83;21163;-76
2021/04/06 11:49:22;;;;;;;5.45;4.90;;;;;;;13.83;29.17;98889.83;1704996;82;21610;-76
2021/04/06 11:51:49;;;;;;;4.83;4.42;;;;;;;13.82;29.22;98896.23;1702088;83;21284;-76
2021/04/06 11:54:19;;;;;;;5.25;4.75;;;;;;;13.80;29.19;98898.34;1701648;82;21650;-80
2021/04/06 11:56:47;;;;;;;5.67;4.90;;;;;;;13.75;29.09;98899.09;1706572;82;21023;-79